Time;durP1;ratioP1;P1;durP2;ratioP2;P2;SDS_P1;SDS_P2;PMS_P1;PMS_P2;Temp;Humidity;BMP_temperature;BMP_pressure;BME280_temperature;BME280_humidity;BME280_pressure;Samples;Min_cycle;Max_cycle;Signal;HPM_P1;HPM_P2
2021/07/18 00:01:15;;;;;;;0.90;0.73;;;19.60;99.90;;;;;;4933745;29;20194;-80
2021/07/18 00:03:40;;;;;;;2.10;2.00;;;19.50;99.90;;;;;;4937944;29;20197;-82
2021/07/18 00:06:06;;;;;;;1.30;1.20;;;19.40;99.90;;;;;;4933865;29;20184;-80
2021/07/18 00:08:31;;;;;;;1.87;1.77;;;19.40;99.90;;;;;;4930347;29;20183;-82
2021/07/18 00:10:57;;;;;;;0.80;0.70;;;19.40;99.90;;;;;;4939845;29;20547;-81
2021/07/18 00:13:22;;;;;;;0.80;0.60;;;19.40;99.90;;;;;;4936889;29;20305;-81
2021/07/18 00:15:49;;;;;;;1.50;1.40;;;19.40;99.90;;;;;;4937989;29;20179;-81
2021/07/18 00:18:14;;;;;;;0.80;0.70;;;19.40;99.90;;;;;;4936084;28;20189;-81
2021/07/18 00:20:40;;;;;;;0.87;0.60;;;19.30;99.90;;;;;;4937195;29;20430;-80
2021/07/18 00:23:06;;;;;;;0.80;0.70;;;19.30;99.90;;;;;;4938955;29;20202;-82
2021/07/18 00:25:34;;;;;;;0.90;0.60;;;19.20;99.90;;;;;;4953448;29;20205;-82
2021/07/18 00:28:01;;;;;;;0.80;0.63;;;19.20;99.90;;;;;;4951847;29;20198;-80
2021/07/18 00:30:27;;;;;;;0.97;0.87;;;19.20;99.90;;;;;;4943896;29;20818;-80
2021/07/18 00:32:53;;;;;;;0.70;0.53;;;19.10;99.90;;;;;;4937901;29;20458;-81
2021/07/18 00:35:18;;;;;;;0.80;0.70;;;19.10;99.90;;;;;;4932358;29;20829;-81
2021/07/18 00:37:44;;;;;;;0.80;0.60;;;19.00;99.90;;;;;;4955062;28;20437;-83
2021/07/18 00:40:10;;;;;;;1.30;1.20;;;19.00;99.90;;;;;;4937672;29;20178;-80
2021/07/18 00:42:37;;;;;;;1.07;0.97;;;19.00;99.90;;;;;;4936972;29;20199;-82
2021/07/18 00:45:04;;;;;;;0.70;0.60;;;18.90;99.90;;;;;;4937037;29;20543;-81
2021/07/18 00:47:31;;;;;;;1.03;0.93;;;18.90;99.90;;;;;;4938065;29;20431;-81
2021/07/18 00:49:58;;;;;;;1.10;1.03;;;18.90;99.90;;;;;;4936494;29;20431;-82
2021/07/18 00:52:24;;;;;;;1.17;0.77;;;18.90;99.90;;;;;;4936337;29;20501;-80
2021/07/18 00:54:49;;;;;;;0.80;0.70;;;18.90;99.90;;;;;;4938711;29;20423;-81
2021/07/18 00:57:16;;;;;;;1.80;1.03;;;18.90;99.90;;;;;;4936224;29;20454;-80
2021/07/18 00:59:42;;;;;;;1.70;1.60;;;18.90;99.90;;;;;;4938952;28;20182;-82
2021/07/18 01:02:08;;;;;;;1.10;1.00;;;18.80;99.90;;;;;;4950470;28;20438;-83
2021/07/18 01:04:34;;;;;;;1.53;1.33;;;18.80;99.90;;;;;;4953849;29;20433;-82
2021/07/18 01:07:00;;;;;;;1.50;1.40;;;18.80;99.90;;;;;;4954060;29;20225;-81
2021/07/18 01:09:26;;;;;;;0.90;0.60;;;18.80;99.90;;;;;;4955656;28;20189;-81
2021/07/18 01:11:53;;;;;;;0.80;0.60;;;18.80;99.90;;;;;;4936592;29;20850;-81
2021/07/18 01:14:19;;;;;;;0.77;0.60;;;18.70;99.90;;;;;;4938664;29;20468;-81
2021/07/18 01:16:45;;;;;;;1.40;0.80;;;18.70;99.90;;;;;;4937598;29;20415;-81
2021/07/18 01:19:12;;;;;;;0.80;0.70;;;18.60;99.90;;;;;;4936088;29;20494;-81
2021/07/18 01:21:41;;;;;;;1.67;0.93;;;18.70;99.90;;;;;;4938008;29;20460;-81
2021/07/18 01:24:07;;;;;;;0.70;0.60;;;18.60;99.90;;;;;;4949240;28;20437;-83
2021/07/18 01:26:33;;;;;;;2.33;2.13;;;18.60;99.90;;;;;;4953223;28;20434;-81
2021/07/18 01:28:59;;;;;;;1.23;1.00;;;18.60;99.90;;;;;;4937759;29;20179;-82
2021/07/18 01:31:25;;;;;;;0.83;0.83;;;18.60;99.90;;;;;;4936223;29;20269;-80
2021/07/18 01:33:51;;;;;;;0.70;0.60;;;18.60;99.90;;;;;;4937264;29;20219;-81
2021/07/18 01:36:17;;;;;;;0.80;0.60;;;18.50;99.90;;;;;;4947085;29;20501;-82
2021/07/18 01:38:42;;;;;;;1.00;0.73;;;18.50;99.90;;;;;;4946039;29;20460;-81
2021/07/18 01:41:08;;;;;;;0.70;0.50;;;18.50;99.90;;;;;;4945958;29;20225;-82
2021/07/18 01:43:34;;;;;;;0.90;0.90;;;18.50;99.90;;;;;;4936710;29;20203;-83
2021/07/18 01:46:00;;;;;;;0.70;0.60;;;18.50;99.90;;;;;;4937810;29;20187;-83
2021/07/18 01:48:25;;;;;;;2.00;1.03;;;18.40;99.90;;;;;;4936488;29;20182;-81
2021/07/18 01:50:51;;;;;;;1.00;0.70;;;18.40;99.90;;;;;;4950177;29;20473;-82
2021/07/18 01:53:16;;;;;;;1.70;1.60;;;18.40;99.90;;;;;;4956076;28;20210;-80
2021/07/18 01:55:42;;;;;;;0.70;0.60;;;18.40;99.90;;;;;;4948930;29;20691;-78
2021/07/18 01:58:08;;;;;;;1.20;1.00;;;18.30;99.90;;;;;;4935470;29;20186;-81
2021/07/18 02:00:33;;;;;;;0.80;0.60;;;18.30;99.90;;;;;;4947851;29;20236;-82
2021/07/18 02:02:59;;;;;;;1.67;1.27;;;18.30;99.90;;;;;;4953303;29;20694;-81
2021/07/18 02:05:24;;;;;;;2.10;1.07;;;18.30;99.90;;;;;;4953707;29;20284;-81
2021/07/18 02:07:51;;;;;;;0.70;0.60;;;18.30;99.90;;;;;;4947157;28;20186;-81
2021/07/18 02:10:19;;;;;;;4.30;0.80;;;18.30;99.90;;;;;;4942778;29;20273;-83
2021/07/18 02:12:46;;;;;;;0.80;0.80;;;18.30;99.90;;;;;;4940892;29;20476;-80
2021/07/18 02:15:15;;;;;;;1.37;0.90;;;18.20;99.90;;;;;;4939548;29;20431;-82
2021/07/18 02:17:40;;;;;;;0.70;0.57;;;18.20;99.90;;;;;;4936924;29;20903;-81
2021/07/18 02:20:09;;;;;;;2.33;1.70;;;18.20;99.90;;;;;;4937188;29;20498;-82
2021/07/18 02:22:47;;;;;;;1.63;1.37;;;18.20;99.90;;;;;;4951826;29;20254;-81
2021/07/18 02:25:16;;;;;;;3.30;1.67;;;18.20;99.90;;;;;;4942543;29;20450;-80
2021/07/18 02:27:41;;;;;;;0.80;0.60;;;18.20;99.90;;;;;;4937281;29;20489;-81
2021/07/18 02:30:10;;;;;;;0.70;0.60;;;18.20;99.90;;;;;;4935964;29;20921;-80
2021/07/18 02:32:36;;;;;;;2.20;1.00;;;18.10;99.90;;;;;;4935350;29;20217;-81
2021/07/18 02:35:05;;;;;;;1.63;1.37;;;18.10;99.90;;;;;;4936037;29;21059;-81
2021/07/18 02:37:31;;;;;;;1.47;1.37;;;18.10;99.90;;;;;;4938358;29;20664;-81
2021/07/18 02:39:56;;;;;;;0.73;0.67;;;18.10;99.90;;;;;;4945069;29;20430;-81
2021/07/18 02:42:22;;;;;;;1.03;0.93;;;18.00;99.90;;;;;;4965102;28;20213;-81
2021/07/18 02:44:47;;;;;;;3.23;1.20;;;18.00;99.90;;;;;;4939041;28;20185;-80
2021/07/18 02:47:13;;;;;;;1.00;0.90;;;18.00;99.90;;;;;;4940522;29;20198;-82
2021/07/18 02:49:38;;;;;;;3.03;2.83;;;18.00;99.90;;;;;;4939821;29;20201;-81
2021/07/18 02:52:04;;;;;;;0.70;0.60;;;18.00;99.90;;;;;;4937998;29;20574;-82
2021/07/18 02:54:31;;;;;;;4.77;2.43;;;18.00;99.90;;;;;;4947386;29;20970;-82
2021/07/18 02:56:56;;;;;;;2.43;1.03;;;18.00;99.90;;;;;;4956622;29;20833;-81
2021/07/18 02:59:22;;;;;;;1.87;0.90;;;18.00;99.90;;;;;;4949773;28;20430;-82
2021/07/18 03:01:47;;;;;;;1.20;1.10;;;17.90;99.90;;;;;;4950190;29;20201;-81
2021/07/18 03:04:13;;;;;;;1.10;1.00;;;17.90;99.90;;;;;;4957728;29;20272;-81
2021/07/18 03:06:38;;;;;;;1.30;0.80;;;17.90;99.90;;;;;;4956489;29;20270;-82
2021/07/18 03:09:04;;;;;;;0.70;0.60;;;17.90;99.90;;;;;;4943278;29;20182;-83
2021/07/18 03:11:29;;;;;;;2.30;0.80;;;17.90;99.90;;;;;;4940344;29;20266;-82
2021/07/18 03:13:55;;;;;;;1.30;1.20;;;17.90;99.90;;;;;;4951997;29;20212;-83
2021/07/18 03:16:20;;;;;;;1.57;1.47;;;17.90;99.90;;;;;;4951811;29;20236;-82
2021/07/18 03:18:46;;;;;;;0.70;0.50;;;17.90;99.90;;;;;;4956562;29;20186;-82
2021/07/18 03:21:11;;;;;;;0.90;0.70;;;17.90;99.90;;;;;;4949836;29;20719;-82
2021/07/18 03:23:37;;;;;;;0.90;0.60;;;17.90;99.90;;;;;;4937473;29;20272;-82
2021/07/18 03:26:02;;;;;;;2.33;1.73;;;17.90;99.90;;;;;;4952277;29;20190;-81
2021/07/18 03:28:28;;;;;;;0.80;0.67;;;17.90;99.90;;;;;;4955713;28;20174;-82
2021/07/18 03:30:53;;;;;;;1.20;0.90;;;17.90;99.90;;;;;;4957781;28;20635;-81
2021/07/18 03:33:19;;;;;;;1.47;1.13;;;17.90;99.90;;;;;;4954137;29;20619;-80
2021/07/18 03:35:45;;;;;;;1.50;0.87;;;17.90;99.90;;;;;;4941446;29;20640;-80
2021/07/18 03:38:11;;;;;;;1.20;0.90;;;17.90;99.90;;;;;;4940237;28;20175;-83
2021/07/18 03:40:36;;;;;;;1.90;1.47;;;17.90;99.90;;;;;;4943734;29;20418;-82
2021/07/18 03:43:02;;;;;;;0.93;0.83;;;17.90;99.90;;;;;;4949202;29;20241;-82
2021/07/18 03:45:28;;;;;;;1.13;0.87;;;17.90;99.90;;;;;;4949593;29;20648;-81
2021/07/18 03:47:53;;;;;;;1.33;1.17;;;17.80;99.90;;;;;;4936994;29;20179;-80
2021/07/18 03:50:19;;;;;;;1.63;1.53;;;17.80;99.90;;;;;;4952918;28;20326;-82
2021/07/18 03:52:44;;;;;;;1.07;0.97;;;17.80;99.90;;;;;;4940981;29;20206;-82
2021/07/18 03:55:11;;;;;;;1.37;1.07;;;17.80;99.90;;;;;;4944177;28;20185;-82
2021/07/18 03:57:36;;;;;;;1.23;0.80;;;17.80;99.90;;;;;;4947556;29;20179;-82
2021/07/18 04:00:04;;;;;;;1.17;1.10;;;17.80;99.90;;;;;;4937126;29;20527;-82
2021/07/18 04:02:29;;;;;;;2.13;1.00;;;17.80;99.90;;;;;;4952680;28;20203;-81
2021/07/18 04:04:55;;;;;;;0.80;0.60;;;17.80;99.90;;;;;;4940369;29;20484;-83
2021/07/18 04:07:21;;;;;;;2.70;0.83;;;17.70;99.90;;;;;;4956357;28;20242;-81
2021/07/18 04:09:46;;;;;;;1.23;0.70;;;17.70;99.90;;;;;;4942239;29;20178;-82
2021/07/18 04:12:12;;;;;;;1.50;1.17;;;17.70;99.90;;;;;;4951346;29;20225;-81
2021/07/18 04:14:37;;;;;;;0.77;0.67;;;17.70;99.90;;;;;;4955043;28;20170;-82
2021/07/18 04:17:03;;;;;;;0.90;0.60;;;17.70;99.90;;;;;;4940425;29;20186;-83
2021/07/18 04:19:29;;;;;;;0.90;0.90;;;17.70;99.90;;;;;;4953153;28;20183;-82
2021/07/18 04:21:54;;;;;;;0.80;0.80;;;17.80;99.90;;;;;;4938832;29;20326;-82
2021/07/18 04:24:20;;;;;;;2.80;1.33;;;17.70;99.90;;;;;;4944224;28;20273;-81
2021/07/18 04:26:45;;;;;;;0.90;0.90;;;17.80;99.90;;;;;;4934175;29;20187;-82
2021/07/18 04:29:11;;;;;;;1.43;1.33;;;17.80;99.90;;;;;;4939573;29;20247;-82
2021/07/18 04:31:36;;;;;;;1.20;1.00;;;17.80;99.90;;;;;;4943877;29;20198;-82
2021/07/18 04:34:02;;;;;;;0.70;0.60;;;17.80;99.90;;;;;;4940635;29;20207;-82
2021/07/18 04:36:27;;;;;;;0.97;0.80;;;17.90;99.90;;;;;;4942892;29;20182;-82
2021/07/18 04:38:53;;;;;;;1.00;0.90;;;17.90;99.90;;;;;;4938466;29;20175;-81
2021/07/18 04:41:18;;;;;;;0.80;0.80;;;17.90;99.90;;;;;;4941106;29;20265;-81
2021/07/18 04:43:44;;;;;;;1.37;1.00;;;17.90;99.90;;;;;;4952866;28;20182;-83
2021/07/18 04:46:11;;;;;;;2.67;1.87;;;17.90;99.90;;;;;;4934302;28;20178;-80
2021/07/18 04:48:37;;;;;;;1.27;0.63;;;18.00;99.90;;;;;;4934120;29;20183;-80
2021/07/18 04:51:02;;;;;;;0.80;0.70;;;18.00;99.90;;;;;;4934058;29;20530;-83
2021/07/18 04:53:28;;;;;;;0.80;0.80;;;18.00;99.90;;;;;;4936785;29;20203;-82
2021/07/18 04:55:54;;;;;;;4.93;2.30;;;18.00;99.90;;;;;;4936129;29;20230;-82
2021/07/18 04:58:20;;;;;;;1.47;1.10;;;18.10;99.90;;;;;;4942412;28;20195;-82
2021/07/18 05:00:46;;;;;;;1.50;0.93;;;18.10;99.90;;;;;;4934144;29;20489;-82
2021/07/18 05:03:11;;;;;;;1.47;1.37;;;18.10;99.90;;;;;;4931773;29;20271;-82
2021/07/18 05:05:37;;;;;;;2.40;1.77;;;18.10;99.90;;;;;;4933853;29;20171;-82
2021/07/18 05:08:03;;;;;;;1.97;1.10;;;18.20;99.90;;;;;;4932037;29;20324;-82
2021/07/18 05:10:29;;;;;;;1.57;1.47;;;18.20;99.90;;;;;;4941199;29;20163;-83
2021/07/18 05:12:56;;;;;;;2.50;2.30;;;18.30;99.90;;;;;;4939948;28;20796;-83
2021/07/18 05:15:24;;;;;;;1.27;0.80;;;18.30;99.90;;;;;;4938451;29;20430;-83
2021/07/18 05:17:50;;;;;;;1.33;1.00;;;18.30;99.90;;;;;;4941605;29;20790;-81
2021/07/18 05:20:18;;;;;;;0.80;0.60;;;18.30;99.90;;;;;;4932622;29;20435;-81
2021/07/18 05:22:44;;;;;;;1.83;1.43;;;18.30;99.90;;;;;;4932457;28;20450;-81
2021/07/18 05:25:11;;;;;;;0.83;0.80;;;18.40;99.90;;;;;;4936339;29;20462;-83
2021/07/18 05:27:38;;;;;;;2.23;1.23;;;18.50;99.90;;;;;;4934203;29;20191;-82
2021/07/18 05:30:11;;;;;;;1.20;1.10;;;18.50;99.90;;;;;;4949284;28;20446;-83
2021/07/18 05:32:37;;;;;;;1.87;1.77;;;18.60;99.90;;;;;;4932674;29;21319;-81
2021/07/18 05:35:04;;;;;;;1.00;0.90;;;18.70;99.90;;;;;;4926274;29;20471;-82
2021/07/18 05:37:30;;;;;;;1.10;0.87;;;18.70;99.90;;;;;;4934585;29;20854;-82
2021/07/18 05:39:55;;;;;;;1.00;0.90;;;18.80;99.90;;;;;;4935797;29;20422;-82
2021/07/18 05:42:21;;;;;;;1.13;1.00;;;18.90;99.90;;;;;;4938908;29;20202;-81
2021/07/18 05:44:47;;;;;;;0.97;0.70;;;19.00;99.90;;;;;;4936692;29;20222;-80
2021/07/18 05:47:12;;;;;;;1.30;1.00;;;19.10;99.90;;;;;;4933908;29;20184;-81
2021/07/18 05:49:38;;;;;;;1.67;1.57;;;19.20;99.90;;;;;;4931513;29;20181;-82
2021/07/18 05:52:04;;;;;;;4.20;1.47;;;19.30;99.90;;;;;;4930349;29;21293;-81
2021/07/18 05:54:30;;;;;;;1.20;0.70;;;19.30;99.90;;;;;;4934999;29;20210;-80
2021/07/18 05:56:56;;;;;;;2.30;1.07;;;19.50;99.90;;;;;;4934413;29;20803;-81
2021/07/18 05:59:22;;;;;;;1.97;1.57;;;19.60;99.90;;;;;;4934155;29;20491;-81
2021/07/18 06:01:48;;;;;;;3.00;1.57;;;19.70;99.90;;;;;;4933485;29;20206;-81
2021/07/18 06:04:14;;;;;;;4.10;1.80;;;19.80;99.90;;;;;;4929935;29;20467;-82
2021/07/18 06:06:39;;;;;;;0.90;0.70;;;19.90;99.90;;;;;;4931980;29;20485;-80
2021/07/18 06:09:05;;;;;;;1.23;1.07;;;20.10;99.90;;;;;;4939799;28;20278;-82
2021/07/18 06:11:30;;;;;;;1.93;1.17;;;20.40;99.90;;;;;;4937903;29;20199;-81
2021/07/18 06:13:56;;;;;;;2.90;2.30;;;20.60;99.90;;;;;;4935762;29;20217;-81
2021/07/18 06:16:22;;;;;;;2.37;2.27;;;20.80;99.90;;;;;;4940891;29;20202;-81
2021/07/18 06:18:47;;;;;;;1.70;1.60;;;21.00;99.90;;;;;;4937674;29;20434;-81
2021/07/18 06:21:13;;;;;;;1.63;1.13;;;21.30;99.90;;;;;;4938926;29;20186;-80
2021/07/18 06:23:38;;;;;;;1.77;1.30;;;21.50;99.90;;;;;;4939707;29;20194;-83
2021/07/18 06:26:05;;;;;;;1.00;0.80;;;21.70;99.90;;;;;;4934335;29;20218;-82
2021/07/18 06:28:31;;;;;;;1.53;1.43;;;21.90;99.90;;;;;;4938099;29;20190;-80
2021/07/18 06:30:57;;;;;;;1.20;1.10;;;22.10;99.90;;;;;;4951045;29;21002;-80
2021/07/18 06:33:23;;;;;;;2.70;1.43;;;22.30;99.90;;;;;;4948601;28;20463;-81
2021/07/18 06:35:49;;;;;;;5.70;1.80;;;22.50;99.90;;;;;;4938109;29;20439;-80
2021/07/18 06:38:15;;;;;;;2.40;1.70;;;22.60;99.90;;;;;;4939330;29;20182;-82
2021/07/18 06:40:42;;;;;;;2.87;2.50;;;22.80;99.90;;;;;;4937828;29;20441;-82
2021/07/18 06:43:07;;;;;;;1.43;1.03;;;22.90;99.90;;;;;;4937862;29;21022;-83
2021/07/18 06:45:33;;;;;;;3.03;2.73;;;23.00;99.90;;;;;;4938913;29;20434;-81
2021/07/18 06:47:58;;;;;;;3.73;1.73;;;23.10;99.90;;;;;;4948008;29;20283;-80
2021/07/18 06:50:24;;;;;;;2.00;1.80;;;23.30;99.90;;;;;;4941279;29;20183;-81
2021/07/18 06:52:50;;;;;;;1.27;1.17;;;23.40;99.90;;;;;;4945263;29;20210;-81
2021/07/18 06:55:15;;;;;;;1.80;1.50;;;23.60;99.90;;;;;;4938848;29;20179;-80
2021/07/18 06:57:51;;;;;;;1.90;1.20;;;23.80;99.90;;;;;;4948100;29;20183;-80
2021/07/18 07:00:19;;;;;;;1.70;1.60;;;23.80;99.90;;;;;;4945271;29;20425;-81
2021/07/18 07:02:44;;;;;;;1.47;1.37;;;24.00;99.90;;;;;;4936791;29;20529;-80
2021/07/18 07:05:11;;;;;;;1.70;1.60;;;24.00;99.90;;;;;;4935718;29;20518;-81
2021/07/18 07:07:38;;;;;;;2.07;1.37;;;24.00;99.90;;;;;;4945137;28;20178;-81
2021/07/18 07:10:05;;;;;;;1.60;1.30;;;24.00;99.90;;;;;;4939195;29;20445;-80
2021/07/18 07:12:31;;;;;;;2.00;1.20;;;24.10;99.90;;;;;;4938341;29;20463;-80
2021/07/18 07:14:57;;;;;;;1.43;1.20;;;24.20;99.90;;;;;;4941463;29;20928;-82
2021/07/18 07:17:23;;;;;;;2.67;2.30;;;24.40;99.90;;;;;;4935022;29;20179;-80
2021/07/18 07:19:49;;;;;;;1.00;0.90;;;24.50;99.90;;;;;;4939119;29;20430;-80
2021/07/18 07:22:15;;;;;;;2.70;2.50;;;24.70;99.90;;;;;;4939786;29;20461;-81
2021/07/18 07:24:40;;;;;;;2.07;1.90;;;24.80;99.90;;;;;;4943868;29;20194;-81
2021/07/18 07:27:06;;;;;;;2.30;2.10;;;25.00;99.90;;;;;;4937215;29;20179;-80
2021/07/18 07:29:31;;;;;;;3.83;1.40;;;25.20;99.90;;;;;;4937957;29;20191;-82
2021/07/18 07:31:57;;;;;;;3.37;2.13;;;25.30;99.90;;;;;;4942537;29;20901;-80
2021/07/18 07:34:23;;;;;;;1.10;1.00;;;25.50;99.90;;;;;;4944307;29;20199;-81
2021/07/18 07:36:48;;;;;;;0.90;0.80;;;25.70;99.90;;;;;;4950569;29;20230;-82
2021/07/18 07:39:14;;;;;;;1.40;0.90;;;25.90;99.90;;;;;;4935112;29;20274;-82
2021/07/18 07:41:39;;;;;;;1.20;1.10;;;26.10;99.90;;;;;;4928251;29;20196;-81
2021/07/18 07:44:06;;;;;;;1.20;1.00;;;26.20;99.90;;;;;;4940264;29;20178;-81
2021/07/18 07:46:31;;;;;;;1.43;1.23;;;26.40;99.90;;;;;;4934645;29;20179;-80
2021/07/18 07:48:57;;;;;;;2.70;1.90;;;26.60;99.90;;;;;;4940457;29;20437;-82
2021/07/18 07:51:23;;;;;;;2.23;1.10;;;26.80;99.90;;;;;;4927343;29;20346;-81
2021/07/18 07:53:50;;;;;;;1.67;1.47;;;27.00;99.90;;;;;;4935471;29;20218;-81
2021/07/18 07:56:16;;;;;;;1.50;1.20;;;27.20;99.90;;;;;;4940580;29;20238;-81
2021/07/18 07:58:42;;;;;;;1.90;1.53;;;27.30;99.90;;;;;;4940157;29;20528;-81
2021/07/18 08:01:07;;;;;;;1.73;1.63;;;27.40;99.90;;;;;;4937293;29;20925;-80
2021/07/18 08:03:33;;;;;;;1.00;0.90;;;27.50;99.90;;;;;;4939457;29;20285;-81
2021/07/18 08:05:58;;;;;;;1.70;1.60;;;27.70;99.90;;;;;;4939030;29;20198;-81
2021/07/18 08:08:24;;;;;;;1.50;0.90;;;27.90;99.90;;;;;;4938623;29;20277;-81
2021/07/18 08:10:49;;;;;;;1.93;1.27;;;28.10;99.90;;;;;;4941138;29;20179;-80
2021/07/18 08:13:15;;;;;;;1.73;1.53;;;28.20;99.90;;;;;;4943212;29;20210;-81
2021/07/18 08:15:40;;;;;;;1.90;1.30;;;28.40;99.90;;;;;;4936290;29;20278;-81
2021/07/18 08:18:06;;;;;;;1.57;1.47;;;28.50;99.90;;;;;;4936858;29;20186;-81
2021/07/18 08:20:32;;;;;;;2.13;2.03;;;28.70;99.90;;;;;;4939453;29;20187;-80
2021/07/18 08:22:57;;;;;;;1.40;1.30;;;28.80;99.90;;;;;;4945540;29;20215;-83
2021/07/18 08:25:25;;;;;;;5.33;1.30;;;29.00;99.90;;;;;;4950598;29;20687;-81
2021/07/18 08:27:51;;;;;;;1.43;0.97;;;29.20;99.90;;;;;;4937270;29;20182;-81
2021/07/18 08:30:17;;;;;;;1.50;1.37;;;29.30;99.90;;;;;;4945442;29;20536;-81
2021/07/18 08:32:43;;;;;;;2.00;1.90;;;29.30;99.90;;;;;;4935192;29;20474;-81
2021/07/18 08:35:09;;;;;;;1.20;1.10;;;29.50;99.90;;;;;;4938588;29;20183;-80
2021/07/18 08:37:36;;;;;;;4.07;2.10;;;29.60;99.90;;;;;;4937559;29;20183;-81
2021/07/18 08:40:04;;;;;;;2.47;2.27;;;29.70;99.90;;;;;;4936810;29;20468;-81
2021/07/18 08:42:30;;;;;;;1.80;1.07;;;29.30;99.90;;;;;;4935435;29;20447;-81
2021/07/18 08:44:58;;;;;;;1.63;0.80;;;29.60;99.90;;;;;;4934358;29;20426;-81
2021/07/18 08:47:24;;;;;;;1.23;1.10;;;29.70;99.90;;;;;;4936104;29;20171;-80
2021/07/18 08:49:49;;;;;;;2.80;1.30;;;29.90;99.90;;;;;;4948093;29;20447;-82
2021/07/18 08:52:22;;;;;;;1.43;1.33;;;30.10;99.90;;;;;;4941841;28;20258;-80
2021/07/18 08:54:51;;;;;;;1.50;1.17;;;30.20;99.90;;;;;;4939320;29;20202;-81
2021/07/18 08:57:19;;;;;;;5.33;2.90;;;30.30;99.90;;;;;;4936312;29;20434;-80
2021/07/18 08:59:45;;;;;;;2.67;2.07;;;30.60;99.90;;;;;;4938018;28;20434;-80
2021/07/18 09:02:11;;;;;;;1.77;1.17;;;30.90;99.90;;;;;;4938233;29;20450;-81
2021/07/18 09:04:36;;;;;;;1.57;1.23;;;31.00;99.90;;;;;;4936906;29;20484;-81
2021/07/18 09:07:07;;;;;;;2.03;1.20;;;31.20;99.90;;;;;;4937501;29;20676;-78
2021/07/18 09:09:33;;;;;;;1.73;1.50;;;31.40;99.90;;;;;;4937248;29;20186;-81
2021/07/18 09:12:09;;;;;;;1.50;0.97;;;31.40;99.90;;;;;;4941282;29;20462;-81
2021/07/18 09:14:39;;;;;;;1.53;0.87;;;31.50;99.90;;;;;;4932056;29;20550;-79
2021/07/18 09:17:10;;;;;;;2.33;0.90;;;31.60;99.90;;;;;;4931987;29;20531;-80
2021/07/18 09:19:37;;;;;;;1.27;1.17;;;31.70;99.90;;;;;;4935960;29;21870;-77
2021/07/18 09:22:03;;;;;;;1.40;1.30;;;31.70;99.90;;;;;;4935662;29;20549;-79
2021/07/18 09:24:33;;;;;;;1.63;1.37;;;31.80;99.90;;;;;;4933574;29;20545;-79
2021/07/18 09:27:03;;;;;;;1.00;0.90;;;31.90;99.90;;;;;;4934842;29;20748;-81
2021/07/18 09:29:29;;;;;;;2.20;1.37;;;32.10;99.90;;;;;;4946853;29;20452;-81
2021/07/18 09:32:21;;;;;;;1.10;0.90;;;32.00;99.90;;;;;;4945172;29;20486;-81
2021/07/18 09:34:49;;;;;;;1.40;1.30;;;32.30;99.90;;;;;;4956319;28;20241;-81
2021/07/18 09:37:23;;;;;;;1.00;0.90;;;32.40;99.90;;;;;;4936168;29;20443;-82
2021/07/18 09:39:52;;;;;;;2.70;2.23;;;32.50;99.90;;;;;;4934527;29;20430;-82
2021/07/18 09:42:35;;;;;;;1.10;1.00;;;32.60;99.90;;;;;;4930918;29;20471;-83
2021/07/18 09:45:04;;;;;;;1.07;0.97;;;32.90;99.50;;;;;;4940909;29;20517;-81
2021/07/18 09:47:30;;;;;;;1.30;1.00;;;33.30;99.10;;;;;;4946633;29;20447;-81
2021/07/18 09:49:55;;;;;;;1.90;1.20;;;33.40;96.00;;;;;;4935565;29;20439;-78
2021/07/18 09:52:28;;;;;;;1.10;1.00;;;33.50;94.50;;;;;;4933634;29;20199;-78
2021/07/18 09:54:56;;;;;;;2.10;1.70;;;33.70;94.80;;;;;;4936151;29;20194;-78
2021/07/18 09:57:30;;;;;;;0.93;0.83;;;33.60;93.60;;;;;;4934080;29;20431;-78
2021/07/18 09:59:56;;;;;;;2.10;1.53;;;33.70;92.70;;;;;;4934478;29;20443;-78
2021/07/18 10:02:24;;;;;;;1.00;0.90;;;33.70;88.90;;;;;;4934211;29;20793;-77
2021/07/18 10:04:50;;;;;;;1.17;1.00;;;33.50;88.60;;;;;;4938188;29;20297;-80
2021/07/18 10:07:15;;;;;;;1.90;1.00;;;33.70;90.10;;;;;;4933202;29;20466;-78
2021/07/18 10:09:41;;;;;;;1.10;1.00;;;33.60;86.60;;;;;;4935038;29;20902;-79
2021/07/18 10:12:08;;;;;;;1.37;1.27;;;33.50;85.80;;;;;;4937590;29;20199;-79
2021/07/18 10:14:34;;;;;;;3.27;1.30;;;33.60;85.30;;;;;;4936744;29;20210;-82
2021/07/18 10:17:00;;;;;;;1.00;0.80;;;33.50;86.50;;;;;;4934558;29;20824;-79
2021/07/18 10:19:26;;;;;;;1.67;1.00;;;33.90;88.60;;;;;;4950959;28;20521;-81
2021/07/18 10:21:52;;;;;;;1.00;0.87;;;34.20;86.30;;;;;;4938274;29;20206;-82
2021/07/18 10:24:18;;;;;;;1.27;1.00;;;34.30;86.30;;;;;;4934806;29;20461;-81
2021/07/18 10:26:44;;;;;;;1.40;1.10;;;34.40;83.90;;;;;;4937980;29;20438;-82
2021/07/18 10:29:10;;;;;;;1.43;1.23;;;34.50;85.60;;;;;;4936028;29;20492;-80
2021/07/18 10:31:49;;;;;;;1.60;1.27;;;34.60;83.60;;;;;;4936235;29;20203;-81
2021/07/18 10:34:17;;;;;;;1.87;1.47;;;34.60;82.50;;;;;;4940396;29;20460;-82
2021/07/18 10:36:43;;;;;;;3.17;2.93;;;34.60;82.20;;;;;;4944009;29;20434;-81
2021/07/18 10:39:28;;;;;;;2.23;1.20;;;34.60;85.90;;;;;;4943192;29;20629;-80
2021/07/18 10:41:54;;;;;;;2.80;1.67;;;34.40;85.10;;;;;;4945170;29;20458;-80
2021/07/18 10:44:20;;;;;;;4.70;3.00;;;34.40;82.10;;;;;;4935416;29;20453;-79
2021/07/18 10:46:55;;;;;;;1.47;1.10;;;33.90;82.50;;;;;;4934938;29;20565;-80
2021/07/18 10:49:47;;;;;;;1.40;1.03;;;33.90;87.70;;;;;;4929039;29;20188;-79
2021/07/18 10:52:13;;;;;;;1.83;1.43;;;34.00;84.50;;;;;;4934775;29;20469;-77
2021/07/18 10:54:44;;;;;;;1.90;1.20;;;34.10;85.40;;;;;;4937002;29;20474;-78
2021/07/18 10:57:21;;;;;;;1.43;1.10;;;34.20;84.30;;;;;;4936378;29;20182;-79
2021/07/18 10:59:46;;;;;;;1.57;1.47;;;34.40;85.40;;;;;;4938604;29;20804;-80
2021/07/18 11:02:18;;;;;;;1.43;1.20;;;34.40;81.80;;;;;;4946609;29;20468;-81
2021/07/18 11:04:45;;;;;;;2.70;1.43;;;34.50;80.40;;;;;;4942975;28;20215;-78
2021/07/18 11:07:23;;;;;;;1.53;1.43;;;34.70;84.20;;;;;;4938504;29;20446;-78
2021/07/18 11:10:09;;;;;;;2.43;2.33;;;34.90;83.00;;;;;;4931734;29;20522;-78
2021/07/18 11:12:37;;;;;;;1.50;1.40;;;34.80;81.60;;;;;;4950031;28;20521;-78
2021/07/18 11:15:14;;;;;;;0.97;0.87;;;34.80;80.50;;;;;;4940654;29;20422;-79
2021/07/18 11:17:55;;;;;;;0.90;0.70;;;34.90;81.80;;;;;;4946211;28;20529;-79
2021/07/18 11:20:39;;;;;;;2.40;1.17;;;35.00;80.30;;;;;;4937056;29;20489;-80
2021/07/18 11:23:06;;;;;;;1.17;1.07;;;35.20;83.30;;;;;;4932037;29;20454;-79
2021/07/18 11:25:51;;;;;;;1.60;1.10;;;35.00;76.50;;;;;;4952536;28;20474;-79
2021/07/18 11:28:30;;;;;;;2.17;1.73;;;35.10;77.40;;;;;;4934836;29;20430;-80
2021/07/18 11:31:14;;;;;;;1.20;1.10;;;35.10;76.10;;;;;;4961178;28;20948;-81
2021/07/18 11:33:45;;;;;;;2.80;1.93;;;35.30;77.80;;;;;;4938280;29;20465;-79
2021/07/18 11:36:11;;;;;;;1.63;1.20;;;35.50;76.70;;;;;;4936089;29;20462;-79
2021/07/18 11:38:37;;;;;;;1.30;1.20;;;35.60;76.50;;;;;;4936131;29;21167;-80
2021/07/18 11:41:26;;;;;;;1.03;0.93;;;35.60;72.60;;;;;;4940581;29;20434;-79
2021/07/18 11:44:00;;;;;;;1.13;0.90;;;35.80;76.90;;;;;;4936547;29;20175;-80
2021/07/18 11:46:32;;;;;;;1.00;0.90;;;35.70;73.20;;;;;;4941924;29;20433;-80
2021/07/18 11:49:01;;;;;;;1.50;1.40;;;35.60;72.10;;;;;;4941783;29;20510;-78
2021/07/18 11:51:32;;;;;;;1.00;0.90;;;35.50;76.60;;;;;;4952321;29;20433;-79
2021/07/18 11:53:59;;;;;;;1.40;1.30;;;35.50;77.30;;;;;;4941229;29;20502;-79
2021/07/18 11:56:26;;;;;;;1.20;1.10;;;35.70;75.30;;;;;;4939152;29;20518;-80
2021/07/18 11:58:53;;;;;;;1.03;0.93;;;35.90;77.00;;;;;;4938991;29;20431;-80
2021/07/18 12:01:24;;;;;;;0.87;0.73;;;35.90;76.40;;;;;;4937004;29;20515;-79
2021/07/18 12:03:50;;;;;;;0.90;0.80;;;36.00;74.20;;;;;;4936863;29;20435;-79
2021/07/18 12:06:18;;;;;;;1.13;1.03;;;35.90;73.50;;;;;;4940994;29;20442;-79
2021/07/18 12:08:44;;;;;;;2.47;1.40;;;36.00;73.80;;;;;;4936779;29;20434;-78
2021/07/18 12:11:12;;;;;;;1.20;1.07;;;36.00;71.20;;;;;;4943174;29;20450;-79
2021/07/18 12:13:38;;;;;;;1.07;0.97;;;36.10;70.60;;;;;;4941966;28;20462;-78
2021/07/18 12:16:05;;;;;;;1.10;1.00;;;36.20;72.30;;;;;;4939871;29;20487;-80
2021/07/18 12:18:31;;;;;;;3.27;1.00;;;36.20;73.20;;;;;;4935680;29;20187;-81
2021/07/18 12:21:16;;;;;;;1.00;0.80;;;36.30;71.10;;;;;;4951643;28;20435;-79
2021/07/18 12:23:41;;;;;;;0.90;0.70;;;36.30;68.90;;;;;;4944963;28;20212;-78
2021/07/18 12:26:07;;;;;;;1.23;1.13;;;36.40;69.50;;;;;;4939640;29;20458;-79
2021/07/18 12:28:32;;;;;;;1.23;0.97;;;36.40;69.60;;;;;;4937548;29;20187;-79
2021/07/18 12:31:07;;;;;;;1.17;1.07;;;36.40;70.20;;;;;;4936173;28;20179;-79
2021/07/18 12:33:34;;;;;;;1.00;0.90;;;36.50;71.00;;;;;;4937502;28;20202;-79
2021/07/18 12:36:01;;;;;;;0.90;0.80;;;36.40;71.80;;;;;;4941009;29;20829;-80
2021/07/18 12:38:26;;;;;;;0.90;0.70;;;36.30;70.90;;;;;;4937369;29;20430;-80
2021/07/18 12:40:59;;;;;;;1.00;0.80;;;36.30;70.60;;;;;;4937191;29;20438;-79
2021/07/18 12:43:25;;;;;;;1.00;0.90;;;36.40;72.30;;;;;;4939200;29;20250;-79
2021/07/18 12:45:51;;;;;;;1.00;0.87;;;36.50;71.00;;;;;;4936251;29;20439;-77
2021/07/18 12:48:22;;;;;;;1.30;1.00;;;36.50;69.00;;;;;;4940306;29;20180;-80